Time;durP1;ratioP1;P1;durP2;ratioP2;P2;SDS_P1;SDS_P2;PMS_P1;PMS_P2;Temp;Humidity;BMP_temperature;BMP_pressure;BME280_temperature;BME280_humidity;BME280_pressure;Samples;Min_cycle;Max_cycle;Signal;HPM_P1;HPM_P2
2022/03/27 00:02:05;;;;;;;19.10;13.55;;;11.90;94.40;;;;;;4948578;29;20074;-74
2022/03/27 00:04:30;;;;;;;18.73;13.35;;;11.90;93.80;;;;;;4949097;29;20477;-74
2022/03/27 00:06:57;;;;;;;16.02;12.20;;;11.90;93.60;;;;;;4946383;29;20041;-74
2022/03/27 00:09:23;;;;;;;18.75;11.73;;;12.00;93.00;;;;;;4955484;28;20039;-74
2022/03/27 00:11:48;;;;;;;15.75;11.13;;;12.10;93.00;;;;;;4957742;28;20098;-74
2022/03/27 00:14:14;;;;;;;16.00;10.85;;;12.10;92.40;;;;;;4947234;29;20059;-73
2022/03/27 00:16:40;;;;;;;18.30;10.65;;;12.20;91.60;;;;;;4950313;29;20042;-74
2022/03/27 00:19:06;;;;;;;16.70;11.93;;;12.10;91.80;;;;;;4946509;29;20035;-74
2022/03/27 00:21:32;;;;;;;16.55;12.05;;;12.00;92.00;;;;;;4946808;29;20027;-74
2022/03/27 00:23:58;;;;;;;17.92;13.68;;;11.70;93.20;;;;;;4946157;28;20059;-74
2022/03/27 00:26:24;;;;;;;18.63;13.82;;;11.30;93.50;;;;;;4947030;29;20180;-74
2022/03/27 00:28:51;;;;;;;19.80;13.98;;;11.20;95.30;;;;;;4949166;29;20598;-74
2022/03/27 00:31:18;;;;;;;19.08;14.35;;;11.20;95.90;;;;;;4949063;28;20453;-74
2022/03/27 00:33:45;;;;;;;22.77;14.93;;;11.00;96.30;;;;;;4947487;29;20086;-74
2022/03/27 00:36:13;;;;;;;22.30;14.88;;;10.90;96.50;;;;;;4946477;29;20086;-74
2022/03/27 00:38:40;;;;;;;25.25;14.00;;;10.80;97.20;;;;;;4946840;29;20037;-74
2022/03/27 00:41:06;;;;;;;28.65;14.65;;;10.90;97.20;;;;;;4947949;28;20035;-74
2022/03/27 00:43:33;;;;;;;26.48;14.60;;;10.90;97.80;;;;;;4946737;29;20106;-74
2022/03/27 00:46:00;;;;;;;26.60;13.70;;;10.90;97.50;;;;;;4946075;29;20055;-74
2022/03/27 00:48:26;;;;;;;21.75;10.70;;;11.00;96.70;;;;;;4946979;29;20118;-74
2022/03/27 00:50:54;;;;;;;13.85;9.07;;;11.30;94.60;;;;;;4946702;29;20039;-76
2022/03/27 00:53:21;;;;;;;15.85;8.68;;;11.60;91.20;;;;;;4945687;29;20102;-76
2022/03/27 00:55:48;;;;;;;16.27;8.48;;;11.80;87.90;;;;;;4946910;28;20031;-75
2022/03/27 00:58:16;;;;;;;14.40;8.25;;;12.00;87.00;;;;;;4953647;29;20110;-76
2022/03/27 01:01:02;;;;;;;13.95;8.40;;;12.10;85.40;;;;;;4952444;29;20031;-75
2022/03/27 01:03:28;;;;;;;16.50;8.57;;;12.20;83.50;;;;;;4953947;29;20031;-75
2022/03/27 01:05:58;;;;;;;13.23;8.15;;;12.20;83.20;;;;;;4952615;29;20477;-76
2022/03/27 01:11:18;;;;;;;12.77;8.13;;;12.40;82.60;;;;;;4938578;29;20043;-75
2022/03/27 01:13:46;;;;;;;14.35;8.38;;;12.30;81.10;;;;;;4952267;29;20026;-75
2022/03/27 01:16:17;;;;;;;14.65;8.55;;;12.30;81.60;;;;;;4954118;29;20042;-75
2022/03/27 01:18:43;;;;;;;13.20;8.32;;;12.30;81.60;;;;;;4952307;29;20413;-75
2022/03/27 01:21:09;;;;;;;14.23;8.15;;;12.30;81.40;;;;;;4952821;29;20031;-75
2022/03/27 01:23:35;;;;;;;16.77;8.70;;;12.30;82.40;;;;;;4952467;28;20117;-75
2022/03/27 01:26:01;;;;;;;14.75;8.75;;;12.20;82.30;;;;;;4954256;29;20493;-75
2022/03/27 01:28:26;;;;;;;12.73;7.75;;;12.10;81.50;;;;;;4952717;29;20023;-76
2022/03/27 01:30:52;;;;;;;12.52;8.20;;;12.10;80.50;;;;;;4951949;29;20070;-76
2022/03/27 01:33:18;;;;;;;11.73;8.15;;;12.10;80.90;;;;;;4952458;29;20401;-76
2022/03/27 01:35:44;;;;;;;12.68;8.30;;;12.10;80.40;;;;;;4958971;28;20034;-75
2022/03/27 01:38:10;;;;;;;17.65;8.60;;;12.20;79.90;;;;;;4958326;28;20039;-76
2022/03/27 01:40:36;;;;;;;13.63;9.38;;;12.20;78.30;;;;;;4956230;28;20027;-75
2022/03/27 01:43:01;;;;;;;13.25;8.15;;;12.30;77.30;;;;;;4959072;28;20031;-76
2022/03/27 01:45:31;;;;;;;13.77;8.27;;;12.40;77.10;;;;;;4958769;28;20045;-75
2022/03/27 01:47:57;;;;;;;12.55;7.82;;;12.40;76.60;;;;;;4958883;28;20031;-75
2022/03/27 01:50:23;;;;;;;10.30;7.97;;;12.40;76.50;;;;;;4958916;28;20030;-75
2022/03/27 01:52:49;;;;;;;12.63;7.25;;;12.40;77.30;;;;;;4955544;28;20038;-75
2022/03/27 01:55:16;;;;;;;13.40;7.55;;;12.50;77.20;;;;;;4941170;29;20093;-75
2022/03/27 01:57:43;;;;;;;11.32;7.15;;;12.50;76.50;;;;;;4958604;28;20074;-75
2022/03/27 02:00:11;;;;;;;12.55;7.50;;;12.60;75.50;;;;;;4958666;28;20023;-75
2022/03/27 02:02:37;;;;;;;11.70;7.72;;;12.60;76.50;;;;;;4958666;28;20019;-75
2022/03/27 02:05:04;;;;;;;13.15;7.68;;;12.50;76.20;;;;;;4956877;28;20492;-76
2022/03/27 02:07:37;;;;;;;15.82;7.88;;;12.50;77.50;;;;;;4955644;28;20127;-76
2022/03/27 02:10:05;;;;;;;13.40;7.45;;;12.40;77.80;;;;;;4958407;28;20480;-75
2022/03/27 02:12:35;;;;;;;11.55;7.47;;;12.40;78.20;;;;;;4958391;28;20074;-75
2022/03/27 02:15:05;;;;;;;11.80;7.40;;;12.40;78.90;;;;;;4958180;28;20034;-75
2022/03/27 02:17:31;;;;;;;12.60;7.85;;;12.40;78.30;;;;;;4958280;28;20471;-76
2022/03/27 02:19:59;;;;;;;11.80;8.02;;;12.40;79.20;;;;;;4955911;28;20046;-75
2022/03/27 02:22:24;;;;;;;13.00;8.15;;;12.30;78.80;;;;;;4953105;28;20036;-76
2022/03/27 02:24:50;;;;;;;12.13;8.02;;;12.40;79.90;;;;;;4958009;28;20031;-75
2022/03/27 02:27:16;;;;;;;14.43;8.82;;;12.30;80.10;;;;;;4957884;28;20035;-76
2022/03/27 02:29:42;;;;;;;13.32;8.93;;;12.40;81.90;;;;;;4957995;28;20039;-75
2022/03/27 02:32:08;;;;;;;13.35;8.50;;;12.30;81.20;;;;;;4957119;28;20514;-75
2022/03/27 02:34:34;;;;;;;13.02;8.80;;;12.30;81.30;;;;;;4955509;28;20031;-76
2022/03/27 02:36:59;;;;;;;14.20;8.23;;;12.30;81.30;;;;;;4958093;28;20038;-76
2022/03/27 02:39:26;;;;;;;13.60;7.95;;;12.20;81.40;;;;;;4958155;28;20102;-75
2022/03/27 02:41:52;;;;;;;13.18;8.95;;;12.30;82.60;;;;;;4957632;28;20109;-76
2022/03/27 02:44:19;;;;;;;11.30;8.00;;;12.40;82.30;;;;;;4958006;28;20444;-75
2022/03/27 02:46:45;;;;;;;14.50;7.88;;;12.40;80.90;;;;;;4954139;29;20043;-75
2022/03/27 02:49:11;;;;;;;16.90;8.75;;;12.30;82.20;;;;;;4957491;28;20499;-76
2022/03/27 02:51:36;;;;;;;15.00;9.27;;;12.30;82.40;;;;;;4958133;28;20035;-75
2022/03/27 02:54:04;;;;;;;13.50;8.68;;;12.30;83.30;;;;;;4957591;28;20031;-75
2022/03/27 02:56:29;;;;;;;12.75;8.55;;;12.30;82.40;;;;;;4957373;28;20535;-76
2022/03/27 02:58:55;;;;;;;15.45;8.90;;;12.20;83.90;;;;;;4938209;28;20030;-75
2022/03/27 03:01:21;;;;;;;15.30;8.90;;;12.20;84.70;;;;;;4956740;28;20027;-75
2022/03/27 03:03:47;;;;;;;15.55;9.20;;;12.30;84.80;;;;;;4940004;29;20031;-75
2022/03/27 03:06:14;;;;;;;14.95;9.00;;;12.30;85.00;;;;;;4957773;28;20047;-75
2022/03/27 03:08:40;;;;;;;15.27;10.05;;;12.30;85.50;;;;;;4957505;28;20078;-75
2022/03/27 03:11:06;;;;;;;14.88;9.75;;;12.30;85.30;;;;;;4955783;28;20043;-75
2022/03/27 03:13:32;;;;;;;16.35;9.60;;;12.30;85.50;;;;;;4955423;28;20432;-75
2022/03/27 03:15:59;;;;;;;13.93;8.98;;;12.30;86.00;;;;;;4957226;28;20548;-75
2022/03/27 03:18:28;;;;;;;14.95;9.35;;;12.20;86.20;;;;;;4957628;28;20039;-75
2022/03/27 03:20:54;;;;;;;14.13;9.93;;;12.20;86.50;;;;;;4957030;28;20023;-75
2022/03/27 03:23:19;;;;;;;16.58;9.73;;;12.10;86.60;;;;;;4956977;28;20401;-76
2022/03/27 03:25:45;;;;;;;17.88;9.63;;;12.10;86.60;;;;;;4953449;29;20043;-76
2022/03/27 03:28:11;;;;;;;15.85;9.50;;;12.10;86.80;;;;;;4956765;28;20441;-75
2022/03/27 03:30:36;;;;;;;16.58;10.10;;;12.10;86.90;;;;;;4957155;28;20082;-75
2022/03/27 03:33:03;;;;;;;14.93;9.85;;;12.10;86.00;;;;;;4957200;28;20082;-75
2022/03/27 03:35:29;;;;;;;17.10;9.93;;;12.00;86.80;;;;;;4957362;28;20059;-75
2022/03/27 03:37:55;;;;;;;13.23;9.43;;;12.00;86.70;;;;;;4954550;28;20054;-76
2022/03/27 03:40:20;;;;;;;16.52;10.98;;;11.90;87.10;;;;;;4956280;28;20117;-75
2022/03/27 03:42:46;;;;;;;16.52;10.10;;;11.90;87.50;;;;;;4956987;28;20031;-75
2022/03/27 03:45:12;;;;;;;18.58;10.02;;;11.90;87.80;;;;;;4956761;28;20067;-75
2022/03/27 03:47:38;;;;;;;18.75;11.05;;;11.90;88.30;;;;;;4956835;28;20031;-75
2022/03/27 03:50:05;;;;;;;16.05;10.70;;;11.90;89.50;;;;;;4938216;28;20028;-75
2022/03/27 03:52:31;;;;;;;20.10;11.57;;;11.90;89.70;;;;;;4954791;28;20051;-75
2022/03/27 03:54:57;;;;;;;18.50;11.52;;;11.90;90.30;;;;;;4956603;28;20035;-75
2022/03/27 03:57:22;;;;;;;20.23;11.90;;;11.90;90.50;;;;;;4956864;28;20469;-75
2022/03/27 03:59:48;;;;;;;19.92;12.05;;;11.90;90.50;;;;;;4956718;28;20024;-75
2022/03/27 04:02:18;;;;;;;17.73;11.43;;;11.90;90.60;;;;;;4956892;28;20110;-75
2022/03/27 04:04:44;;;;;;;18.52;11.55;;;12.00;90.50;;;;;;4949549;29;20075;-76
2022/03/27 04:07:10;;;;;;;16.70;11.38;;;12.10;90.50;;;;;;4956958;28;20408;-75
2022/03/27 04:09:36;;;;;;;19.30;11.32;;;12.00;90.60;;;;;;4956731;28;20037;-75
2022/03/27 04:12:02;;;;;;;17.05;11.60;;;12.10;90.40;;;;;;4956637;28;20035;-75
2022/03/27 04:14:29;;;;;;;15.82;10.27;;;12.00;90.70;;;;;;4956870;28;20039;-75
2022/03/27 04:16:56;;;;;;;16.48;10.57;;;12.00;90.50;;;;;;4954002;28;20027;-75
2022/03/27 04:19:22;;;;;;;17.25;10.38;;;12.10;90.70;;;;;;4955683;28;20122;-75
2022/03/27 04:21:48;;;;;;;17.80;10.50;;;12.00;90.40;;;;;;4956584;28;20086;-75
2022/03/27 04:24:13;;;;;;;17.08;10.63;;;12.10;90.50;;;;;;4956120;28;20063;-75
2022/03/27 04:26:40;;;;;;;15.57;10.85;;;12.00;89.50;;;;;;4956650;28;20031;-75
2022/03/27 04:29:07;;;;;;;15.60;10.80;;;12.00;89.50;;;;;;4955803;28;20039;-75
2022/03/27 04:31:33;;;;;;;16.88;10.93;;;12.10;88.50;;;;;;4955314;28;20171;-75
2022/03/27 04:33:59;;;;;;;15.93;10.25;;;12.00;88.70;;;;;;4960031;28;20473;-75
2022/03/27 04:36:25;;;;;;;17.38;10.73;;;12.00;88.30;;;;;;4960223;28;20042;-75
2022/03/27 04:38:50;;;;;;;21.20;12.60;;;12.10;88.50;;;;;;4942245;29;20031;-75
2022/03/27 04:41:17;;;;;;;17.13;10.93;;;12.10;87.40;;;;;;4960094;28;20427;-75
2022/03/27 04:43:48;;;;;;;15.75;10.18;;;12.10;86.50;;;;;;4957205;29;20389;-76
2022/03/27 04:46:14;;;;;;;16.25;10.27;;;12.10;87.10;;;;;;4959085;28;20501;-75
2022/03/27 04:48:40;;;;;;;16.95;10.95;;;12.10;87.20;;;;;;4960011;28;20039;-75
2022/03/27 04:51:06;;;;;;;14.45;9.55;;;12.10;86.70;;;;;;4960405;28;20027;-75
2022/03/27 04:53:32;;;;;;;15.35;10.30;;;12.10;86.20;;;;;;4959745;28;20468;-75
2022/03/27 04:55:57;;;;;;;14.82;9.18;;;12.10;86.40;;;;;;4957579;28;20055;-75
2022/03/27 04:58:24;;;;;;;14.35;9.95;;;12.10;85.70;;;;;;4958559;28;20034;-75
2022/03/27 05:00:50;;;;;;;15.98;9.13;;;12.00;86.30;;;;;;4959619;28;20114;-75
2022/03/27 05:03:15;;;;;;;14.38;9.05;;;12.10;85.80;;;;;;4959606;28;20154;-75
2022/03/27 05:05:41;;;;;;;14.63;8.95;;;12.10;85.20;;;;;;4959916;28;20078;-75
2022/03/27 05:08:07;;;;;;;14.48;9.07;;;12.10;85.00;;;;;;4958069;28;20160;-75
2022/03/27 05:10:33;;;;;;;14.85;9.15;;;12.00;85.20;;;;;;4957071;28;20432;-75
2022/03/27 05:12:59;;;;;;;14.25;8.75;;;12.10;85.00;;;;;;4959809;28;20039;-75
2022/03/27 05:15:26;;;;;;;14.40;8.90;;;12.10;85.00;;;;;;4942066;29;20522;-75
2022/03/27 05:17:56;;;;;;;14.07;9.07;;;12.10;86.30;;;;;;4959569;28;20030;-75
2022/03/27 05:20:23;;;;;;;14.55;9.13;;;12.00;86.00;;;;;;4960068;28;20023;-75
2022/03/27 05:22:49;;;;;;;13.32;9.10;;;12.10;85.50;;;;;;4955307;28;20569;-75
2022/03/27 05:25:16;;;;;;;14.07;8.73;;;12.10;85.50;;;;;;4959228;28;20039;-75
2022/03/27 05:27:47;;;;;;;15.15;9.27;;;12.10;85.70;;;;;;4959280;28;20046;-75
2022/03/27 05:30:15;;;;;;;14.73;9.50;;;12.20;86.00;;;;;;4959307;28;20113;-75
2022/03/27 05:32:41;;;;;;;17.33;8.93;;;12.10;86.20;;;;;;4959309;28;20064;-75
2022/03/27 05:35:07;;;;;;;15.20;9.25;;;12.10;86.40;;;;;;4958275;28;20026;-75
2022/03/27 05:37:40;;;;;;;14.90;8.95;;;12.10;86.50;;;;;;4956423;28;20133;-75
2022/03/27 05:40:08;;;;;;;13.38;8.73;;;12.20;86.30;;;;;;4959335;28;20063;-75
2022/03/27 05:42:34;;;;;;;12.95;9.18;;;12.20;86.60;;;;;;4958628;28;20023;-76
2022/03/27 05:45:00;;;;;;;14.65;9.27;;;12.20;87.20;;;;;;4958939;28;20035;-75
2022/03/27 05:47:27;;;;;;;15.52;9.57;;;12.20;88.20;;;;;;4959242;28;20041;-75
2022/03/27 05:49:53;;;;;;;16.08;9.27;;;12.10;87.30;;;;;;4956080;28;20032;-75
2022/03/27 05:52:18;;;;;;;14.57;8.77;;;12.20;87.80;;;;;;4958151;28;20038;-76
2022/03/27 05:54:44;;;;;;;14.18;8.95;;;12.20;87.00;;;;;;4958844;28;20362;-75
2022/03/27 05:57:10;;;;;;;15.70;9.05;;;12.30;86.90;;;;;;4959050;28;20034;-75
2022/03/27 05:59:35;;;;;;;14.02;8.82;;;12.30;86.80;;;;;;4958820;28;20011;-75
2022/03/27 06:02:01;;;;;;;14.63;8.70;;;12.30;86.80;;;;;;4956834;28;20445;-76
2022/03/27 06:04:27;;;;;;;17.05;9.13;;;12.40;86.50;;;;;;4957157;28;20032;-75
2022/03/27 06:06:53;;;;;;;14.30;8.60;;;12.40;86.60;;;;;;4941103;29;20394;-75
2022/03/27 06:09:19;;;;;;;18.80;9.20;;;12.30;86.80;;;;;;4958640;28;20023;-75
2022/03/27 06:11:44;;;;;;;15.60;8.80;;;12.40;86.50;;;;;;4958508;28;20065;-75
2022/03/27 06:14:10;;;;;;;14.90;8.98;;;12.40;87.00;;;;;;4940260;28;20026;-75
2022/03/27 06:16:37;;;;;;;16.88;9.45;;;12.40;87.90;;;;;;4956224;28;20037;-76
2022/03/27 06:19:02;;;;;;;16.00;9.73;;;12.40;87.50;;;;;;4958394;28;20023;-75
2022/03/27 06:21:28;;;;;;;17.10;10.43;;;12.30;88.40;;;;;;4957756;28;20114;-75
2022/03/27 06:23:54;;;;;;;16.00;9.38;;;12.30;88.70;;;;;;4958238;28;20110;-75
2022/03/27 06:26:21;;;;;;;14.20;9.60;;;12.30;89.50;;;;;;4958174;28;20451;-76
2022/03/27 06:28:47;;;;;;;15.85;9.88;;;12.20;90.00;;;;;;4954909;28;20477;-75
2022/03/27 06:31:13;;;;;;;16.02;9.45;;;12.30;90.70;;;;;;4958277;28;20090;-76
2022/03/27 06:33:39;;;;;;;15.63;9.60;;;12.30;90.50;;;;;;4958096;28;20082;-75
2022/03/27 06:36:05;;;;;;;13.32;9.05;;;12.30;90.50;;;;;;4957791;28;20019;-75
2022/03/27 06:38:31;;;;;;;13.02;9.60;;;12.30;90.20;;;;;;4957990;28;20472;-75
2022/03/27 06:40:56;;;;;;;13.90;9.55;;;12.30;90.30;;;;;;4955448;28;20082;-75
2022/03/27 06:43:22;;;;;;;15.73;9.57;;;12.40;90.50;;;;;;4957354;28;20078;-76
2022/03/27 06:45:49;;;;;;;13.48;8.93;;;12.30;90.30;;;;;;4957794;28;20031;-75
2022/03/27 06:48:16;;;;;;;16.33;9.15;;;12.40;90.00;;;;;;4957661;28;20058;-75
2022/03/27 06:50:44;;;;;;;15.88;9.50;;;12.40;89.30;;;;;;4957471;28;20050;-76
2022/03/27 06:53:12;;;;;;;14.43;9.40;;;12.50;88.70;;;;;;4956953;28;20050;-75
2022/03/27 06:55:38;;;;;;;14.40;9.68;;;12.60;88.10;;;;;;4954129;28;20027;-75
2022/03/27 06:58:03;;;;;;;18.15;10.38;;;12.60;88.40;;;;;;4957573;28;20042;-75
2022/03/27 07:03:13;;;;;;;;;;;12.60;88.10;;;;;;4958131;28;20074;-75
2022/03/27 07:05:43;;;;;;;15.13;8.77;;;12.70;87.60;;;;;;4957592;28;20335;-76
2022/03/27 07:08:13;;;;;;;14.68;8.98;;;12.80;87.60;;;;;;4956246;28;20801;-75
2022/03/27 07:10:41;;;;;;;12.80;8.02;;;12.90;87.00;;;;;;4954751;28;20465;-75
2022/03/27 07:13:09;;;;;;;13.55;8.60;;;12.90;87.00;;;;;;4940188;29;20070;-75
2022/03/27 07:15:36;;;;;;;14.50;9.05;;;12.90;86.40;;;;;;4957428;28;20034;-76
2022/03/27 07:18:02;;;;;;;15.02;9.02;;;13.00;86.80;;;;;;4956712;28;20027;-75
2022/03/27 07:20:30;;;;;;;14.65;9.20;;;13.00;86.20;;;;;;4957294;28;20547;-75
2022/03/27 07:22:59;;;;;;;17.05;9.00;;;13.10;86.20;;;;;;4954705;28;20051;-75
2022/03/27 07:25:26;;;;;;;14.00;8.40;;;13.10;86.70;;;;;;4955922;28;20027;-76
2022/03/27 07:27:53;;;;;;;15.43;8.13;;;13.20;86.00;;;;;;4957104;28;20106;-76
2022/03/27 07:30:19;;;;;;;15.93;8.52;;;13.30;86.70;;;;;;4957483;28;20031;-75
2022/03/27 07:32:45;;;;;;;13.60;8.30;;;13.30;86.30;;;;;;4956817;28;20027;-75
2022/03/27 07:35:17;;;;;;;12.77;8.60;;;13.30;85.50;;;;;;4939214;28;20034;-75
2022/03/27 07:37:43;;;;;;;12.77;8.70;;;13.30;85.30;;;;;;4949620;29;20027;-75
2022/03/27 07:40:11;;;;;;;13.55;8.75;;;13.30;85.30;;;;;;4956976;28;20023;-75
2022/03/27 07:42:38;;;;;;;15.68;9.07;;;13.40;86.50;;;;;;4939565;29;20027;-75
2022/03/27 07:45:05;;;;;;;16.45;8.95;;;13.50;84.00;;;;;;4956834;28;20547;-75
2022/03/27 07:47:32;;;;;;;16.35;9.35;;;13.60;84.30;;;;;;4956859;28;20067;-75
2022/03/27 07:49:59;;;;;;;13.50;8.48;;;13.60;83.60;;;;;;4954706;28;20536;-76
2022/03/27 07:52:26;;;;;;;15.82;8.85;;;13.60;83.80;;;;;;4955698;28;20043;-75
2022/03/27 07:54:52;;;;;;;14.73;8.80;;;13.70;83.90;;;;;;4956818;28;20031;-76
2022/03/27 07:57:20;;;;;;;15.80;10.13;;;13.80;82.90;;;;;;4956920;28;20031;-74
2022/03/27 07:59:47;;;;;;;13.13;8.82;;;13.80;83.90;;;;;;4956928;28;20038;-76
2022/03/27 08:02:14;;;;;;;17.83;9.32;;;13.90;83.80;;;;;;4956192;28;20038;-75
2022/03/27 08:04:39;;;;;;;18.67;9.35;;;13.90;84.00;;;;;;4953736;28;20509;-76
2022/03/27 08:07:05;;;;;;;17.17;10.63;;;13.90;83.40;;;;;;4960307;28;20035;-76
2022/03/27 08:09:31;;;;;;;18.27;10.35;;;14.00;83.00;;;;;;4960631;28;20429;-75
2022/03/27 08:11:57;;;;;;;15.25;10.07;;;14.10;81.70;;;;;;4960992;28;20031;-76
2022/03/27 08:14:28;;;;;;;13.30;9.07;;;14.20;83.00;;;;;;4960729;28;20097;-76
2022/03/27 08:16:54;;;;;;;15.75;9.30;;;14.30;81.80;;;;;;4957214;28;20035;-76
2022/03/27 08:19:20;;;;;;;15.80;9.93;;;14.40;81.40;;;;;;4960041;28;20114;-76
2022/03/27 08:21:46;;;;;;;18.65;10.02;;;14.50;81.80;;;;;;4960528;28;20102;-74
2022/03/27 08:24:12;;;;;;;16.42;10.02;;;14.50;80.30;;;;;;4960137;28;20051;-76
2022/03/27 08:26:56;;;;;;;17.02;9.98;;;14.60;80.50;;;;;;4960248;28;20082;-76
2022/03/27 08:29:43;;;;;;;14.88;10.05;;;14.60;80.70;;;;;;4956681;28;20046;-77
2022/03/27 08:32:14;;;;;;;14.63;9.52;;;14.70;80.70;;;;;;4955034;28;20074;-76
2022/03/27 08:34:42;;;;;;;16.98;9.38;;;14.80;81.30;;;;;;4955778;28;20421;-76
2022/03/27 08:37:10;;;;;;;13.82;9.30;;;14.80;80.00;;;;;;4960140;28;20037;-75
2022/03/27 08:39:38;;;;;;;13.70;8.82;;;14.90;81.10;;;;;;4959589;28;20362;-75
2022/03/27 08:42:04;;;;;;;14.27;9.55;;;14.90;82.00;;;;;;4959695;28;20032;-76
2022/03/27 08:44:34;;;;;;;13.85;9.10;;;15.00;79.70;;;;;;4941127;28;20031;-75
2022/03/27 08:47:01;;;;;;;14.27;8.68;;;15.00;80.40;;;;;;4957579;28;20146;-74
2022/03/27 08:49:40;;;;;;;16.77;8.95;;;15.10;80.40;;;;;;4954019;29;20027;-78
2022/03/27 08:52:21;;;;;;;19.20;8.82;;;15.10;80.50;;;;;;4959492;28;20035;-74
2022/03/27 08:54:50;;;;;;;14.60;8.35;;;15.20;79.50;;;;;;4955321;28;20023;-71
2022/03/27 08:57:49;;;;;;;11.73;7.93;;;15.30;80.10;;;;;;4960007;28;20031;-73
2022/03/27 09:00:15;;;;;;;15.93;9.73;;;15.30;79.10;;;;;;4958488;28;20075;-73
2022/03/27 09:02:41;;;;;;;14.55;9.68;;;15.50;80.50;;;;;;4959198;28;20139;-72
2022/03/27 09:05:08;;;;;;;16.05;9.75;;;15.50;79.30;;;;;;4958177;28;20146;-71
2022/03/27 09:07:34;;;;;;;16.25;9.63;;;15.50;78.60;;;;;;4957077;28;20035;-71
2022/03/27 09:10:06;;;;;;;17.80;9.65;;;15.60;77.60;;;;;;4959386;28;20491;-71
2022/03/27 09:12:34;;;;;;;14.25;9.13;;;15.70;79.50;;;;;;4958958;28;20031;-72
2022/03/27 09:15:00;;;;;;;11.48;8.32;;;15.80;78.80;;;;;;4958876;28;20023;-71
2022/03/27 09:17:26;;;;;;;16.13;8.90;;;15.90;77.60;;;;;;4958949;28;20027;-71
2022/03/27 09:19:52;;;;;;;13.40;8.30;;;16.00;77.90;;;;;;4955731;28;20114;-71
2022/03/27 09:22:27;;;;;;;12.68;8.55;;;16.10;77.90;;;;;;4958786;28;20031;-72
2022/03/27 09:25:01;;;;;;;15.23;8.95;;;16.00;76.20;;;;;;4954637;28;20657;-72
2022/03/27 09:27:36;;;;;;;13.90;8.95;;;16.00;76.70;;;;;;4956297;28;20540;-71
2022/03/27 09:30:09;;;;;;;14.88;9.25;;;16.20;76.00;;;;;;4949701;28;20062;-72
2022/03/27 09:32:40;;;;;;;14.32;8.57;;;16.30;75.80;;;;;;4955840;28;20039;-71
2022/03/27 09:35:14;;;;;;;16.45;9.23;;;16.40;76.60;;;;;;4956163;28;20034;-72
2022/03/27 09:37:46;;;;;;;13.30;8.50;;;16.50;75.40;;;;;;4955374;29;20023;-72
2022/03/27 09:40:13;;;;;;;13.88;8.77;;;16.60;75.40;;;;;;4957239;28;20039;-72
2022/03/27 09:42:40;;;;;;;12.75;8.43;;;16.60;75.60;;;;;;4954601;28;20354;-72
2022/03/27 09:45:16;;;;;;;14.30;8.25;;;16.80;75.80;;;;;;4955455;28;20038;-71
2022/03/27 09:47:44;;;;;;;14.55;9.52;;;16.90;75.60;;;;;;4955327;28;20039;-72
2022/03/27 09:50:38;;;;;;;15.65;8.88;;;17.00;75.70;;;;;;4955796;28;20035;-72
2022/03/27 09:53:26;;;;;;;16.70;8.82;;;17.30;74.90;;;;;;4954535;28;20039;-71
2022/03/27 09:55:58;;;;;;;13.88;8.77;;;17.50;72.20;;;;;;4951968;28;20113;-71
2022/03/27 09:58:46;;;;;;;14.90;8.30;;;17.60;72.40;;;;;;4955125;28;20038;-71
2022/03/27 10:01:17;;;;;;;12.93;8.18;;;17.60;70.40;;;;;;4956476;28;20036;-71
2022/03/27 10:03:57;;;;;;;15.68;9.20;;;17.70;70.40;;;;;;4955850;28;20058;-71
2022/03/27 10:06:35;;;;;;;14.25;8.15;;;17.70;71.30;;;;;;4955725;28;20023;-70
2022/03/27 10:09:02;;;;;;;12.15;7.85;;;17.70;71.40;;;;;;4955670;28;20429;-71
2022/03/27 10:11:29;;;;;;;12.10;7.72;;;17.80;70.80;;;;;;4955568;28;20035;-70
2022/03/27 10:13:56;;;;;;;12.85;8.18;;;17.80;71.50;;;;;;4952271;28;20928;-71
2022/03/27 10:16:28;;;;;;;13.60;8.35;;;17.90;72.30;;;;;;4950382;28;20054;-71
2022/03/27 10:19:06;;;;;;;14.75;8.95;;;18.00;70.70;;;;;;4948073;29;20477;-71
2022/03/27 10:21:34;;;;;;;11.40;8.48;;;18.00;71.10;;;;;;4948239;29;20090;-71
2022/03/27 10:24:08;;;;;;;14.32;9.05;;;18.10;70.80;;;;;;4948416;28;20114;-72
2022/03/27 10:26:34;;;;;;;14.07;8.93;;;18.10;72.30;;;;;;4932151;29;20126;-72
2022/03/27 10:29:05;;;;;;;19.50;9.43;;;18.10;69.90;;;;;;4949268;28;20043;-72
2022/03/27 10:31:31;;;;;;;13.75;9.10;;;18.10;71.30;;;;;;4947613;29;20035;-71
2022/03/27 10:34:00;;;;;;;14.95;9.50;;;18.10;71.00;;;;;;4947679;29;20060;-73
2022/03/27 10:37:16;;;;;;;13.23;8.85;;;18.20;70.60;;;;;;4947156;29;20049;-71
2022/03/27 10:40:12;;;;;;;13.95;9.20;;;18.20;70.30;;;;;;4890707;29;20587;-71
2022/03/27 10:42:45;;;;;;;16.23;10.05;;;18.20;71.70;;;;;;4888793;29;20048;-71
2022/03/27 10:45:19;;;;;;;14.15;9.70;;;18.30;70.30;;;;;;4866444;29;20147;-71
2022/03/27 10:48:10;;;;;;;17.98;9.77;;;18.30;69.90;;;;;;4890736;29;20056;-71
2022/03/27 10:51:02;;;;;;;16.65;9.38;;;18.30;70.20;;;;;;5121542;27;20111;-68
2022/03/27 10:53:28;;;;;;;12.02;8.90;;;18.40;69.40;;;;;;5089638;28;20058;-68
2022/03/27 10:55:57;;;;;;;18.75;8.85;;;18.40;70.50;;;;;;5106928;28;20447;-68
2022/03/27 10:58:37;;;;;;;14.35;9.27;;;18.50;71.60;;;;;;5107961;28;20024;-70
2022/03/27 11:01:23;;;;;;;14.77;9.88;;;18.50;71.40;;;;;;5106290;28;20105;-68
2022/03/27 11:04:04;;;;;;;14.45;9.63;;;18.50;70.40;;;;;;5106973;28;20027;-68
2022/03/27 11:06:37;;;;;;;15.38;8.73;;;18.60;70.50;;;;;;5106140;28;20111;-70
2022/03/27 11:09:09;;;;;;;14.00;8.75;;;18.60;70.10;;;;;;5108466;28;20042;-68
2022/03/27 11:11:37;;;;;;;71.10;65.38;;;18.60;70.30;;;;;;5107443;28;20032;-69
2022/03/27 11:14:04;;;;;;;24.55;17.90;;;18.70;69.60;;;;;;5108384;28;20457;-70
2022/03/27 11:16:30;;;;;;;63.25;56.60;;;18.80;71.70;;;;;;5110972;28;20023;-70
2022/03/27 11:18:58;;;;;;;13.75;10.35;;;18.80;69.40;;;;;;5109461;28;20024;-68
2022/03/27 11:21:27;;;;;;;15.20;9.95;;;18.90;70.00;;;;;;5109441;28;20107;-69
2022/03/27 11:24:02;;;;;;;15.48;12.50;;;18.90;69.30;;;;;;5108930;28;20033;-68
2022/03/27 11:26:29;;;;;;;13.25;8.77;;;19.00;68.00;;;;;;5087356;28;20057;-68
2022/03/27 11:29:04;;;;;;;14.50;10.50;;;19.00;71.80;;;;;;5109364;28;20040;-68
2022/03/27 11:31:35;;;;;;;13.55;8.77;;;19.00;68.60;;;;;;5105784;28;20035;-68
2022/03/27 11:34:14;;;;;;;13.75;8.35;;;19.00;67.60;;;;;;5104514;28;20495;-68
2022/03/27 11:36:42;;;;;;;14.05;9.30;;;19.10;68.80;;;;;;5103786;28;20073;-68
2022/03/27 11:39:12;;;;;;;12.25;8.82;;;19.10;68.40;;;;;;5104138;28;20023;-68
2022/03/27 11:41:46;;;;;;;12.60;8.10;;;19.10;66.60;;;;;;5104462;28;20035;-68
2022/03/27 11:47:23;;;;;;;13.25;10.18;;;19.10;67.40;;;;;;5106232;28;20515;-68
2022/03/27 11:49:51;;;;;;;15.65;9.38;;;19.20;66.10;;;;;;5103980;28;20040;-68
2022/03/27 11:52:19;;;;;;;11.88;9.00;;;19.20;65.10;;;;;;5087582;28;20032;-68
2022/03/27 11:54:48;;;;;;;13.02;8.55;;;19.30;67.00;;;;;;5103979;28;20492;-68
2022/03/27 11:57:16;;;;;;;15.38;9.15;;;19.30;66.60;;;;;;5104699;28;20042;-68
2022/03/27 11:59:50;;;;;;;13.07;9.70;;;19.40;66.10;;;;;;5104983;28;20129;-68
2022/03/27 12:02:16;;;;;;;;;;;19.40;66.60;;;;;;5091257;28;20031;-68
2022/03/27 12:04:57;;;;;;;13.40;9.18;;;19.50;64.60;;;;;;5094448;28;19904;-68
2022/03/27 12:07:24;;;;;;;11.35;8.52;;;19.60;66.50;;;;;;5092685;28;20032;-67
2022/03/27 12:10:00;;;;;;;17.58;9.63;;;19.70;64.50;;;;;;5090385;28;20382;-68
2022/03/27 12:12:27;;;;;;;14.20;9.18;;;19.80;65.90;;;;;;5091240;28;20032;-69
2022/03/27 12:14:54;;;;;;;11.05;8.38;;;19.90;64.00;;;;;;5092150;28;20032;-69
2022/03/27 12:17:21;;;;;;;14.68;10.27;;;20.10;65.70;;;;;;5089817;28;20036;-68
2022/03/27 12:19:56;;;;;;;11.82;9.07;;;20.20;65.70;;;;;;5092931;28;20020;-69
2022/03/27 12:22:50;;;;;;;15.65;8.52;;;20.30;66.90;;;;;;5092177;28;20077;-68
2022/03/27 12:25:21;;;;;;;12.65;8.52;;;20.50;63.70;;;;;;5091360;28;20435;-68
2022/03/27 12:30:44;;;;;;;12.98;8.15;;;20.70;61.40;;;;;;5092021;28;20121;-69
2022/03/27 12:33:10;;;;;;;14.52;9.45;;;20.80;61.10;;;;;;5090645;28;20039;-69
2022/03/27 12:35:36;;;;;;;11.73;8.30;;;20.90;59.70;;;;;;5089718;28;20051;-69
2022/03/27 12:38:02;;;;;;;13.35;8.65;;;21.00;56.90;;;;;;5091913;28;20465;-69
2022/03/27 12:40:28;;;;;;;13.45;8.90;;;21.10;57.30;;;;;;5091833;28;20519;-69
2022/03/27 12:43:11;;;;;;;12.70;8.73;;;21.10;55.60;;;;;;5089651;28;20556;-69
2022/03/27 12:45:40;;;;;;;10.10;7.82;;;21.20;54.40;;;;;;5089904;28;20123;-69
2022/03/27 12:48:11;;;;;;;11.80;8.18;;;21.20;54.50;;;;;;5089480;28;20024;-69
2022/03/27 12:50:42;;;;;;;15.13;8.02;;;21.20;54.10;;;;;;5089168;28;20076;-69
2022/03/27 12:53:23;;;;;;;12.18;8.55;;;21.20;54.10;;;;;;5090542;28;20036;-69
2022/03/27 12:55:53;;;;;;;15.27;8.95;;;21.20;52.10;;;;;;5089664;28;20107;-69